sensor_id;sensor_type;location;lat;lon;timestamp;pressure;altitude;pressure_sealevel;temperature;humidity
23241;BME280;11789;53.482;9.862;2024-02-28T00:01:48;102062.44;;;2.48;100.00
23241;BME280;11789;53.482;9.862;2024-02-28T00:04:14;102061.56;;;2.48;100.00
23241;BME280;11789;53.482;9.862;2024-02-28T00:06:40;102053.03;;;2.47;100.00
23241;BME280;11789;53.482;9.862;2024-02-28T00:09:05;102055.59;;;2.47;100.00
23241;BME280;11789;53.482;9.862;2024-02-28T00:11:31;102054.66;;;2.45;100.00
23241;BME280;11789;53.482;9.862;2024-02-28T00:13:57;102051.13;;;2.43;100.00
23241;BME280;11789;53.482;9.862;2024-02-28T00:16:25;102041.59;;;2.39;100.00
23241;BME280;11789;53.482;9.862;2024-02-28T00:18:50;102044.03;;;2.38;100.00
23241;BME280;11789;53.482;9.862;2024-02-28T00:21:16;102047.63;;;2.41;100.00
23241;BME280;11789;53.482;9.862;2024-02-28T00:23:42;102039.16;;;2.42;100.00
23241;BME280;11789;53.482;9.862;2024-02-28T00:26:07;102056.97;;;2.41;100.00
23241;BME280;11789;53.482;9.862;2024-02-28T00:28:33;102049.94;;;2.37;100.00
23241;BME280;11789;53.482;9.862;2024-02-28T00:30:58;102041.19;;;2.31;100.00
23241;BME280;11789;53.482;9.862;2024-02-28T00:33:24;102044.53;;;2.30;100.00
23241;BME280;11789;53.482;9.862;2024-02-28T00:35:49;102049.63;;;2.30;100.00
23241;BME280;11789;53.482;9.862;2024-02-28T00:38:14;102052.34;;;2.33;100.00
23241;BME280;11789;53.482;9.862;2024-02-28T00:40:40;102056.03;;;2.39;100.00
23241;BME280;11789;53.482;9.862;2024-02-28T00:43:05;102051.13;;;2.43;100.00
23241;BME280;11789;53.482;9.862;2024-02-28T00:45:31;102053.69;;;2.43;100.00
23241;BME280;11789;53.482;9.862;2024-02-28T00:47:56;102041.81;;;2.44;100.00
23241;BME280;11789;53.482;9.862;2024-02-28T00:50:21;102044.38;;;2.44;100.00
23241;BME280;11789;53.482;9.862;2024-02-28T00:52:47;102050.41;;;2.46;100.00
23241;BME280;11789;53.482;9.862;2024-02-28T00:55:12;102047.94;;;2.47;100.00
23241;BME280;11789;53.482;9.862;2024-02-28T00:57:38;102048.91;;;2.49;100.00
23241;BME280;11789;53.482;9.862;2024-02-28T01:00:04;102051.53;;;2.51;100.00
23241;BME280;11789;53.482;9.862;2024-02-28T01:02:31;102039.41;;;2.47;100.00
23241;BME280;11789;53.482;9.862;2024-02-28T01:04:57;102042.75;;;2.46;100.00
23241;BME280;11789;53.482;9.862;2024-02-28T01:07:22;102041.88;;;2.45;100.00
23241;BME280;11789;53.482;9.862;2024-02-28T01:09:48;102045.62;;;2.52;100.00
23241;BME280;11789;53.482;9.862;2024-02-28T01:12:13;102050.91;;;2.55;100.00
23241;BME280;11789;53.482;9.862;2024-02-28T01:14:39;102052.56;;;2.54;100.00
23241;BME280;11789;53.482;9.862;2024-02-28T01:17:04;102055.69;;;2.49;100.00
23241;BME280;11789;53.482;9.862;2024-02-28T01:19:30;102042.94;;;2.49;100.00
23241;BME280;11789;53.482;9.862;2024-02-28T01:21:56;102035.03;;;2.44;100.00
23241;BME280;11789;53.482;9.862;2024-02-28T01:24:22;102027.84;;;2.37;100.00
23241;BME280;11789;53.482;9.862;2024-02-28T01:26:48;102032.81;;;2.34;100.00
23241;BME280;11789;53.482;9.862;2024-02-28T01:29:13;102026.75;;;2.32;100.00
23241;BME280;11789;53.482;9.862;2024-02-28T01:31:39;102030.81;;;2.28;100.00
23241;BME280;11789;53.482;9.862;2024-02-28T01:34:04;102029.06;;;2.27;100.00
23241;BME280;11789;53.482;9.862;2024-02-28T01:36:30;102020.44;;;2.25;100.00
23241;BME280;11789;53.482;9.862;2024-02-28T01:38:55;102022.19;;;2.26;100.00
23241;BME280;11789;53.482;9.862;2024-02-28T01:41:20;102022.38;;;2.29;100.00
23241;BME280;11789;53.482;9.862;2024-02-28T01:43:46;102019.87;;;2.31;100.00
23241;BME280;11789;53.482;9.862;2024-02-28T01:46:26;102025.78;;;2.30;100.00
23241;BME280;11789;53.482;9.862;2024-02-28T01:48:53;102027.63;;;2.32;100.00
23241;BME280;11789;53.482;9.862;2024-02-28T01:51:19;102027.78;;;2.36;100.00
23241;BME280;11789;53.482;9.862;2024-02-28T01:53:45;102016.53;;;2.32;100.00
23241;BME280;11789;53.482;9.862;2024-02-28T01:56:14;102026.59;;;2.29;100.00
23241;BME280;11789;53.482;9.862;2024-02-28T01:58:43;102017.91;;;2.25;100.00
23241;BME280;11789;53.482;9.862;2024-02-28T02:01:11;102019.50;;;2.23;100.00
23241;BME280;11789;53.482;9.862;2024-02-28T02:03:37;102019.59;;;2.25;100.00
23241;BME280;11789;53.482;9.862;2024-02-28T02:06:03;102016.22;;;2.26;100.00
23241;BME280;11789;53.482;9.862;2024-02-28T02:08:29;102016.28;;;2.27;100.00
23241;BME280;11789;53.482;9.862;2024-02-28T02:10:55;102024.91;;;2.29;100.00
23241;BME280;11789;53.482;9.862;2024-02-28T02:13:21;102033.59;;;2.33;100.00
23241;BME280;11789;53.482;9.862;2024-02-28T02:15:46;102034.56;;;2.35;100.00
23241;BME280;11789;53.482;9.862;2024-02-28T02:18:11;102030.16;;;2.32;100.00
23241;BME280;11789;53.482;9.862;2024-02-28T02:20:41;102036.00;;;2.30;100.00
23241;BME280;11789;53.482;9.862;2024-02-28T02:23:09;102038.31;;;2.25;100.00
23241;BME280;11789;53.482;9.862;2024-02-28T02:25:34;102038.25;;;2.24;100.00
23241;BME280;11789;53.482;9.862;2024-02-28T02:28:00;102036.31;;;2.20;100.00
23241;BME280;11789;53.482;9.862;2024-02-28T02:30:25;102037.13;;;2.19;100.00
23241;BME280;11789;53.482;9.862;2024-02-28T02:32:51;102038.81;;;2.18;100.00
23241;BME280;11789;53.482;9.862;2024-02-28T02:35:16;102035.34;;;2.18;100.00
23241;BME280;11789;53.482;9.862;2024-02-28T02:37:45;102035.22;;;2.15;100.00
23241;BME280;11789;53.482;9.862;2024-02-28T02:40:14;102035.34;;;2.18;100.00
23241;BME280;11789;53.482;9.862;2024-02-28T02:42:40;102038.62;;;2.15;100.00
23241;BME280;11789;53.482;9.862;2024-02-28T02:45:06;102054.88;;;2.17;100.00
23241;BME280;11789;53.482;9.862;2024-02-28T02:47:31;102054.13;;;2.18;100.00
23241;BME280;11789;53.482;9.862;2024-02-28T02:49:57;102051.56;;;2.18;100.00
23241;BME280;11789;53.482;9.862;2024-02-28T02:52:22;102051.31;;;2.14;100.00
23241;BME280;11789;53.482;9.862;2024-02-28T02:54:47;102045.41;;;2.15;100.00
23241;BME280;11789;53.482;9.862;2024-02-28T02:57:13;102050.50;;;2.15;100.00
23241;BME280;11789;53.482;9.862;2024-02-28T02:59:38;102047.16;;;2.16;100.00
23241;BME280;11789;53.482;9.862;2024-02-28T03:02:04;102050.75;;;2.19;100.00
23241;BME280;11789;53.482;9.862;2024-02-28T03:04:29;102060.09;;;2.19;100.00
23241;BME280;11789;53.482;9.862;2024-02-28T03:06:54;102062.53;;;2.17;100.00
23241;BME280;11789;53.482;9.862;2024-02-28T03:09:20;102059.22;;;2.18;100.00
23241;BME280;11789;53.482;9.862;2024-02-28T03:11:45;102060.22;;;2.22;100.00
23241;BME280;11789;53.482;9.862;2024-02-28T03:14:11;102057.78;;;2.23;100.00
23241;BME280;11789;53.482;9.862;2024-02-28T03:16:41;102056.00;;;2.22;100.00
23241;BME280;11789;53.482;9.862;2024-02-28T03:19:06;102049.00;;;2.18;100.00
23241;BME280;11789;53.482;9.862;2024-02-28T03:21:32;102042.94;;;2.16;100.00
23241;BME280;11789;53.482;9.862;2024-02-28T03:23:57;102037.59;;;2.12;100.00
23241;BME280;11789;53.482;9.862;2024-02-28T03:26:23;102028.25;;;2.12;100.00
23241;BME280;11789;53.482;9.862;2024-02-28T03:28:48;102041.75;;;2.10;100.00
23241;BME280;11789;53.482;9.862;2024-02-28T03:31:13;102026.75;;;2.16;100.00
23241;BME280;11789;53.482;9.862;2024-02-28T03:33:39;102023.31;;;2.15;100.00
23241;BME280;11789;53.482;9.862;2024-02-28T03:36:05;102019.97;;;2.16;100.00
23241;BME280;11789;53.482;9.862;2024-02-28T03:38:30;102022.53;;;2.16;100.00
23241;BME280;11789;53.482;9.862;2024-02-28T03:40:55;102020.78;;;2.15;100.00
23241;BME280;11789;53.482;9.862;2024-02-28T03:43:21;102026.50;;;2.11;100.00
23241;BME280;11789;53.482;9.862;2024-02-28T03:45:47;102027.50;;;2.13;100.00
23241;BME280;11789;53.482;9.862;2024-02-28T03:48:13;102020.59;;;2.12;100.00
23241;BME280;11789;53.482;9.862;2024-02-28T03:50:39;102018.78;;;2.10;100.00
23241;BME280;11789;53.482;9.862;2024-02-28T03:53:04;102020.37;;;2.07;100.00
23241;BME280;11789;53.482;9.862;2024-02-28T03:55:30;102024.75;;;2.10;100.00
23241;BME280;11789;53.482;9.862;2024-02-28T03:57:55;102024.94;;;2.13;100.00
23241;BME280;11789;53.482;9.862;2024-02-28T04:00:21;102021.72;;;2.17;100.00
23241;BME280;11789;53.482;9.862;2024-02-28T04:02:46;102021.59;;;2.14;100.00
23241;BME280;11789;53.482;9.862;2024-02-28T04:05:12;102028.38;;;2.14;100.00
23241;BME280;11789;53.482;9.862;2024-02-28T04:07:37;102023.97;;;2.11;100.00
23241;BME280;11789;53.482;9.862;2024-02-28T04:10:03;102034.09;;;2.10;100.00
23241;BME280;11789;53.482;9.862;2024-02-28T04:12:30;102031.53;;;2.10;100.00
23241;BME280;11789;53.482;9.862;2024-02-28T04:14:56;102031.47;;;2.08;100.00
23241;BME280;11789;53.482;9.862;2024-02-28T04:17:21;102026.19;;;2.05;100.00
23241;BME280;11789;53.482;9.862;2024-02-28T04:19:47;102021.78;;;2.02;100.00
23241;BME280;11789;53.482;9.862;2024-02-28T04:22:12;102024.03;;;1.96;100.00
23241;BME280;11789;53.482;9.862;2024-02-28T04:24:38;102031.62;;;1.95;100.00
23241;BME280;11789;53.482;9.862;2024-02-28T04:27:03;102023.97;;;1.95;100.00
23241;BME280;11789;53.482;9.862;2024-02-28T04:29:30;102026.19;;;1.89;100.00
23241;BME280;11789;53.482;9.862;2024-02-28T04:31:56;102023.41;;;1.84;100.00
23241;BME280;11789;53.482;9.862;2024-02-28T04:34:21;102019.00;;;1.81;100.00
23241;BME280;11789;53.482;9.862;2024-02-28T04:36:47;102016.13;;;1.75;100.00
23241;BME280;11789;53.482;9.862;2024-02-28T04:39:12;102027.94;;;1.73;100.00
23241;BME280;11789;53.482;9.862;2024-02-28T04:41:38;102031.16;;;1.71;100.00
23241;BME280;11789;53.482;9.862;2024-02-28T04:44:03;102037.00;;;1.68;100.00
23241;BME280;11789;53.482;9.862;2024-02-28T04:46:29;102034.44;;;1.68;100.00
23241;BME280;11789;53.482;9.862;2024-02-28T04:48:54;102030.91;;;1.66;100.00
23241;BME280;11789;53.482;9.862;2024-02-28T04:51:19;102037.00;;;1.68;100.00
23241;BME280;11789;53.482;9.862;2024-02-28T04:53:45;102028.56;;;1.69;100.00
23241;BME280;11789;53.482;9.862;2024-02-28T04:56:10;102030.22;;;1.69;100.00
23241;BME280;11789;53.482;9.862;2024-02-28T04:58:37;102026.25;;;1.74;100.00
23241;BME280;11789;53.482;9.862;2024-02-28T05:01:02;102032.03;;;1.71;100.00
23241;BME280;11789;53.482;9.862;2024-02-28T05:03:28;102039.69;;;1.71;100.00
23241;BME280;11789;53.482;9.862;2024-02-28T05:05:54;102033.91;;;1.74;100.00
23241;BME280;11789;53.482;9.862;2024-02-28T05:08:20;102039.87;;;1.74;100.00
23241;BME280;11789;53.482;9.862;2024-02-28T05:10:46;102042.50;;;1.76;100.00
23241;BME280;11789;53.482;9.862;2024-02-28T05:13:12;102041.69;;;1.77;100.00
23241;BME280;11789;53.482;9.862;2024-02-28T05:15:37;102045.16;;;1.77;100.00
23241;BME280;11789;53.482;9.862;2024-02-28T05:18:03;102042.59;;;1.77;100.00
23241;BME280;11789;53.482;9.862;2024-02-28T05:20:29;102035.81;;;1.78;100.00
23241;BME280;11789;53.482;9.862;2024-02-28T05:22:54;102048.56;;;1.78;100.00
23241;BME280;11789;53.482;9.862;2024-02-28T05:25:20;102045.16;;;1.77;100.00
23241;BME280;11789;53.482;9.862;2024-02-28T05:27:45;102041.69;;;1.77;100.00
23241;BME280;11789;53.482;9.862;2024-02-28T05:30:11;102040.69;;;1.73;100.00
23241;BME280;11789;53.482;9.862;2024-02-28T05:32:36;102047.53;;;1.74;100.00
23241;BME280;11789;53.482;9.862;2024-02-28T05:35:02;102045.66;;;1.72;100.00
23241;BME280;11789;53.482;9.862;2024-02-28T05:37:27;102050.69;;;1.70;100.00
23241;BME280;11789;53.482;9.862;2024-02-28T05:39:53;102046.22;;;1.66;100.00
23241;BME280;11789;53.482;9.862;2024-02-28T05:42:18;102047.09;;;1.67;100.00
23241;BME280;11789;53.482;9.862;2024-02-28T05:44:48;102053.78;;;1.65;100.00
23241;BME280;11789;53.482;9.862;2024-02-28T05:47:14;102061.38;;;1.63;100.00
23241;BME280;11789;53.482;9.862;2024-02-28T05:49:40;102057.13;;;1.64;100.00
23241;BME280;11789;53.482;9.862;2024-02-28T05:52:05;102072.56;;;1.67;100.00
23241;BME280;11789;53.482;9.862;2024-02-28T05:54:31;102073.31;;;1.64;100.00
23241;BME280;11789;53.482;9.862;2024-02-28T05:56:57;102076.00;;;1.67;100.00
23241;BME280;11789;53.482;9.862;2024-02-28T05:59:22;102074.25;;;1.66;100.00
23241;BME280;11789;53.482;9.862;2024-02-28T06:01:47;102075.25;;;1.68;100.00
23241;BME280;11789;53.482;9.862;2024-02-28T06:04:13;102070.91;;;1.67;100.00
23241;BME280;11789;53.482;9.862;2024-02-28T06:06:38;102076.91;;;1.68;100.00
23241;BME280;11789;53.482;9.862;2024-02-28T06:09:04;102073.56;;;1.69;100.00
23241;BME280;11789;53.482;9.862;2024-02-28T06:11:29;102080.34;;;1.68;100.00
23241;BME280;11789;53.482;9.862;2024-02-28T06:13:55;102066.59;;;1.66;100.00
23241;BME280;11789;53.482;9.862;2024-02-28T06:16:20;102069.97;;;1.65;100.00
23241;BME280;11789;53.482;9.862;2024-02-28T06:18:45;102070.91;;;1.67;100.00
23241;BME280;11789;53.482;9.862;2024-02-28T06:21:13;102074.25;;;1.66;100.00
23241;BME280;11789;53.482;9.862;2024-02-28T06:23:38;102075.25;;;1.68;100.00
23241;BME280;11789;53.482;9.862;2024-02-28T06:26:04;102076.81;;;1.66;100.00
23241;BME280;11789;53.482;9.862;2024-02-28T06:28:29;102076.97;;;1.69;100.00
23241;BME280;11789;53.482;9.862;2024-02-28T06:30:54;102071.88;;;1.69;100.00
23241;BME280;11789;53.482;9.862;2024-02-28T06:33:20;102084.88;;;1.74;100.00
23241;BME280;11789;53.482;9.862;2024-02-28T06:35:45;102091.81;;;1.76;100.00
23241;BME280;11789;53.482;9.862;2024-02-28T06:38:11;102096.28;;;1.80;100.00
23241;BME280;11789;53.482;9.862;2024-02-28T06:40:36;102094.53;;;1.79;100.00
23241;BME280;11789;53.482;9.862;2024-02-28T06:43:02;102095.66;;;1.85;100.00
23241;BME280;11789;53.482;9.862;2024-02-28T06:45:27;102100.03;;;1.87;100.00
23241;BME280;11789;53.482;9.862;2024-02-28T06:47:53;102093.50;;;1.92;100.00
23241;BME280;11789;53.482;9.862;2024-02-28T06:50:18;102099.66;;;1.96;100.00
23241;BME280;11789;53.482;9.862;2024-02-28T06:52:43;102102.53;;;2.02;100.00
23241;BME280;11789;53.482;9.862;2024-02-28T06:55:09;102112.91;;;2.05;100.00
23241;BME280;11789;53.482;9.862;2024-02-28T06:57:40;102113.09;;;2.08;100.00
23241;BME280;11789;53.482;9.862;2024-02-28T07:00:06;102116.41;;;2.07;100.00
23241;BME280;11789;53.482;9.862;2024-02-28T07:02:36;102109.56;;;2.06;100.00
23241;BME280;11789;53.482;9.862;2024-02-28T07:05:03;102114.59;;;2.04;100.00
23241;BME280;11789;53.482;9.862;2024-02-28T07:07:30;102112.13;;;2.06;100.00
23241;BME280;11789;53.482;9.862;2024-02-28T07:09:57;102115.66;;;2.08;100.00
23241;BME280;11789;53.482;9.862;2024-02-28T07:12:22;102116.59;;;2.10;100.00
23241;BME280;11789;53.482;9.862;2024-02-28T07:14:48;102114.38;;;2.16;100.00
23241;BME280;11789;53.482;9.862;2024-02-28T07:17:13;102108.63;;;2.20;100.00
23241;BME280;11789;53.482;9.862;2024-02-28T07:19:38;102111.56;;;2.28;100.00
23241;BME280;11789;53.482;9.862;2024-02-28T07:22:04;102109.38;;;2.34;100.00
23241;BME280;11789;53.482;9.862;2024-02-28T07:24:31;102112.31;;;2.42;100.00
23241;BME280;11789;53.482;9.862;2024-02-28T07:26:56;102113.59;;;2.50;100.00
23241;BME280;11789;53.482;9.862;2024-02-28T07:29:22;102103.75;;;2.90;100.00
23241;BME280;11789;53.482;9.862;2024-02-28T07:31:49;102101.50;;;3.14;100.00
23241;BME280;11789;53.482;9.862;2024-02-28T07:34:15;102106.94;;;3.38;100.00
23241;BME280;11789;53.482;9.862;2024-02-28T07:36:40;102123.53;;;3.64;100.00
23241;BME280;11789;53.482;9.862;2024-02-28T07:39:06;102117.69;;;3.67;100.00
23241;BME280;11789;53.482;9.862;2024-02-28T07:41:31;102136.25;;;3.80;100.00
23241;BME280;11789;53.482;9.862;2024-02-28T07:43:57;102131.63;;;4.28;100.00
23241;BME280;11789;53.482;9.862;2024-02-28T07:46:23;102117.69;;;4.60;100.00
23241;BME280;11789;53.482;9.862;2024-02-28T07:48:48;102121.06;;;4.59;100.00
23241;BME280;11789;53.482;9.862;2024-02-28T07:51:13;102119.06;;;4.72;100.00
23241;BME280;11789;53.482;9.862;2024-02-28T07:53:40;102119.59;;;4.45;100.00
23241;BME280;11789;53.482;9.862;2024-02-28T07:56:06;102119.50;;;4.24;100.00
23241;BME280;11789;53.482;9.862;2024-02-28T07:58:31;102130.00;;;4.11;100.00
23241;BME280;11789;53.482;9.862;2024-02-28T08:00:57;102132.63;;;4.12;100.00
23241;BME280;11789;53.482;9.862;2024-02-28T08:03:22;102134.75;;;4.40;100.00
23241;BME280;11789;53.482;9.862;2024-02-28T08:05:48;102143.91;;;4.55;100.00
23241;BME280;11789;53.482;9.862;2024-02-28T08:08:14;102141.94;;;4.30;100.00
23241;BME280;11789;53.482;9.862;2024-02-28T08:10:40;102150.47;;;4.11;100.00
23241;BME280;11789;53.482;9.862;2024-02-28T08:13:05;102149.63;;;3.93;100.00
23241;BME280;11789;53.482;9.862;2024-02-28T08:15:31;102149.78;;;3.78;100.00
23241;BME280;11789;53.482;9.862;2024-02-28T08:17:57;102150.06;;;3.84;100.00
23241;BME280;11789;53.482;9.862;2024-02-28T08:20:23;102153.81;;;3.90;100.00
23241;BME280;11789;53.482;9.862;2024-02-28T08:22:49;102150.66;;;4.15;100.00
23241;BME280;11789;53.482;9.862;2024-02-28T08:25:14;102150.78;;;4.56;100.00
23241;BME280;11789;53.482;9.862;2024-02-28T08:27:41;102151.19;;;4.84;100.00
23241;BME280;11789;53.482;9.862;2024-02-28T08:30:07;102147.81;;;4.85;100.00
23241;BME280;11789;53.482;9.862;2024-02-28T08:32:33;102147.22;;;5.12;100.00
23241;BME280;11789;53.482;9.862;2024-02-28T08:34:59;102149.31;;;5.41;100.00
23241;BME280;11789;53.482;9.862;2024-02-28T08:37:25;102143.31;;;5.20;100.00
23241;BME280;11789;53.482;9.862;2024-02-28T08:39:52;102146.81;;;5.22;100.00
23241;BME280;11789;53.482;9.862;2024-02-28T08:42:20;102147.31;;;5.55;98.89
23241;BME280;11789;53.482;9.862;2024-02-28T08:44:45;102150.78;;;6.68;94.87
23241;BME280;11789;53.482;9.862;2024-02-28T08:47:13;102150.59;;;8.19;86.61
23241;BME280;11789;53.482;9.862;2024-02-28T08:49:39;102149.31;;;9.63;77.86
23241;BME280;11789;53.482;9.862;2024-02-28T08:52:05;102144.88;;;11.80;68.36
23241;BME280;11789;53.482;9.862;2024-02-28T08:54:31;102130.12;;;13.18;61.31
23241;BME280;11789;53.482;9.862;2024-02-28T08:56:56;102127.75;;;12.55;60.41
23241;BME280;11789;53.482;9.862;2024-02-28T08:59:22;102148.94;;;11.11;65.41
23241;BME280;11789;53.482;9.862;2024-02-28T09:01:48;102144.03;;;10.79;65.57
23241;BME280;11789;53.482;9.862;2024-02-28T09:04:14;102156.22;;;9.29;71.46
23241;BME280;11789;53.482;9.862;2024-02-28T09:06:39;102162.28;;;8.08;77.04
23241;BME280;11789;53.482;9.862;2024-02-28T09:09:05;102163.94;;;7.52;81.06
23241;BME280;11789;53.482;9.862;2024-02-28T09:11:30;102157.28;;;7.32;82.93
23241;BME280;11789;53.482;9.862;2024-02-28T09:13:56;102163.53;;;7.40;84.83
23241;BME280;11789;53.482;9.862;2024-02-28T09:16:21;102165.28;;;7.66;82.73
23241;BME280;11789;53.482;9.862;2024-02-28T09:18:46;102173.56;;;7.32;84.36
23241;BME280;11789;53.482;9.862;2024-02-28T09:21:12;102166.16;;;6.90;85.88
23241;BME280;11789;53.482;9.862;2024-02-28T09:23:37;102166.13;;;6.42;88.81
23241;BME280;11789;53.482;9.862;2024-02-28T09:26:04;102181.91;;;6.29;90.54
23241;BME280;11789;53.482;9.862;2024-02-28T09:28:29;102181.38;;;6.15;92.11
23241;BME280;11789;53.482;9.862;2024-02-28T09:30:55;102177.25;;;5.98;93.56
23241;BME280;11789;53.482;9.862;2024-02-28T09:33:20;102179.47;;;5.89;94.84
23241;BME280;11789;53.482;9.862;2024-02-28T09:35:46;102179.75;;;6.40;95.53
23241;BME280;11789;53.482;9.862;2024-02-28T09:38:11;102176.37;;;6.65;92.49
23241;BME280;11789;53.482;9.862;2024-02-28T09:40:36;102173.06;;;6.69;91.97
23241;BME280;11789;53.482;9.862;2024-02-28T09:43:03;102169.06;;;6.53;92.82
23241;BME280;11789;53.482;9.862;2024-02-28T09:45:30;102170.56;;;6.46;92.94
23241;BME280;11789;53.482;9.862;2024-02-28T09:48:01;102169.16;;;6.55;92.81
23241;BME280;11789;53.482;9.862;2024-02-28T09:50:28;102180.19;;;6.52;92.69
23241;BME280;11789;53.482;9.862;2024-02-28T09:52:54;102174.47;;;6.37;92.95
23241;BME280;11789;53.482;9.862;2024-02-28T09:55:20;102175.00;;;6.28;93.72
23241;BME280;11789;53.482;9.862;2024-02-28T09:57:50;102171.63;;;6.29;94.75
23241;BME280;11789;53.482;9.862;2024-02-28T10:00:19;102166.59;;;6.32;94.72
23241;BME280;11789;53.482;9.862;2024-02-28T10:02:47;102171.50;;;6.26;94.31
23241;BME280;11789;53.482;9.862;2024-02-28T10:05:14;102175.91;;;6.29;94.40
23241;BME280;11789;53.482;9.862;2024-02-28T10:07:39;102170.22;;;6.37;95.11
23241;BME280;11789;53.482;9.862;2024-02-28T10:10:06;102172.22;;;6.44;94.69
23241;BME280;11789;53.482;9.862;2024-02-28T10:12:33;102170.78;;;6.53;93.32
23241;BME280;11789;53.482;9.862;2024-02-28T10:15:00;102176.47;;;6.44;93.58
23241;BME280;11789;53.482;9.862;2024-02-28T10:17:25;102167.97;;;6.46;93.78
23241;BME280;11789;53.482;9.862;2024-02-28T10:19:52;102176.47;;;6.44;93.92
23241;BME280;11789;53.482;9.862;2024-02-28T10:22:17;102182.22;;;6.38;94.23
23241;BME280;11789;53.482;9.862;2024-02-28T10:24:43;102179.59;;;6.37;94.76
23241;BME280;11789;53.482;9.862;2024-02-28T10:27:08;102180.31;;;6.33;96.04
23241;BME280;11789;53.482;9.862;2024-02-28T10:29:33;102177.34;;;6.22;96.17
23241;BME280;11789;53.482;9.862;2024-02-28T10:31:59;102178.28;;;6.24;96.87
23241;BME280;11789;53.482;9.862;2024-02-28T10:34:25;102180.91;;;6.26;96.44
23241;BME280;11789;53.482;9.862;2024-02-28T10:36:51;102179.59;;;6.37;95.89
23241;BME280;11789;53.482;9.862;2024-02-28T10:39:17;102186.09;;;6.49;95.79
23241;BME280;11789;53.482;9.862;2024-02-28T10:41:45;102179.34;;;6.53;95.40
23241;BME280;11789;53.482;9.862;2024-02-28T10:44:12;102181.88;;;6.52;95.65
23241;BME280;11789;53.482;9.862;2024-02-28T10:46:39;102187.38;;;6.38;95.97
23241;BME280;11789;53.482;9.862;2024-02-28T10:49:05;102185.03;;;6.22;95.98
23241;BME280;11789;53.482;9.862;2024-02-28T10:51:34;102194.38;;;6.20;96.84
23241;BME280;11789;53.482;9.862;2024-02-28T10:54:08;102188.66;;;6.27;97.30
23241;BME280;11789;53.482;9.862;2024-02-28T10:56:41;102193.06;;;6.30;98.16
23241;BME280;11789;53.482;9.862;2024-02-28T10:59:09;102181.91;;;6.29;97.98
23241;BME280;11789;53.482;9.862;2024-02-28T11:01:39;102182.87;;;6.33;98.29
23241;BME280;11789;53.482;9.862;2024-02-28T11:04:09;102177.00;;;6.35;98.37
23241;BME280;11789;53.482;9.862;2024-02-28T11:06:35;102191.72;;;6.39;98.13
23241;BME280;11789;53.482;9.862;2024-02-28T11:09:03;102186.63;;;6.41;98.37
23241;BME280;11789;53.482;9.862;2024-02-28T11:11:31;102201.91;;;6.38;98.35
23241;BME280;11789;53.482;9.862;2024-02-28T11:13:59;102203.72;;;6.40;98.57
23241;BME280;11789;53.482;9.862;2024-02-28T11:16:31;102205.19;;;6.34;98.19
23241;BME280;11789;53.482;9.862;2024-02-28T11:18:57;102202.44;;;6.29;98.57
23241;BME280;11789;53.482;9.862;2024-02-28T11:21:24;102203.19;;;6.27;98.70
23241;BME280;11789;53.482;9.862;2024-02-28T11:23:51;102206.53;;;6.24;99.48
23241;BME280;11789;53.482;9.862;2024-02-28T11:26:16;102200.44;;;6.22;99.36
23241;BME280;11789;53.482;9.862;2024-02-28T11:28:43;102203.72;;;6.18;99.12
23241;BME280;11789;53.482;9.862;2024-02-28T11:31:08;102201.78;;;6.12;99.74
23241;BME280;11789;53.482;9.862;2024-02-28T11:33:35;102206.87;;;6.11;100.00
23241;BME280;11789;53.482;9.862;2024-02-28T11:36:01;102201.59;;;6.08;100.00
23241;BME280;11789;53.482;9.862;2024-02-28T11:38:28;102204.34;;;6.12;100.00
23241;BME280;11789;53.482;9.862;2024-02-28T11:40:54;102207.00;;;6.14;100.00
23241;BME280;11789;53.482;9.862;2024-02-28T11:43:23;102205.22;;;6.13;100.00
23241;BME280;11789;53.482;9.862;2024-02-28T11:45:49;102216.25;;;6.10;100.00
23241;BME280;11789;53.482;9.862;2024-02-28T11:48:15;102205.03;;;6.08;100.00
23241;BME280;11789;53.482;9.862;2024-02-28T11:50:41;102205.84;;;6.07;100.00
23241;BME280;11789;53.482;9.862;2024-02-28T11:53:07;102203.37;;;6.09;100.00
23241;BME280;11789;53.482;9.862;2024-02-28T11:55:33;102206.72;;;6.08;100.00
23241;BME280;11789;53.482;9.862;2024-02-28T11:57:58;102206.81;;;6.09;100.00
23241;BME280;11789;53.482;9.862;2024-02-28T12:00:24;102201.72;;;6.11;100.00
23241;BME280;11789;53.482;9.862;2024-02-28T12:02:49;102197.41;;;6.10;100.00
23241;BME280;11789;53.482;9.862;2024-02-28T12:05:14;102198.28;;;6.10;100.00
23241;BME280;11789;53.482;9.862;2024-02-28T12:07:41;102202.47;;;6.08;100.00
23241;BME280;11789;53.482;9.862;2024-02-28T12:10:08;102207.47;;;6.04;100.00
23241;BME280;11789;53.482;9.862;2024-02-28T12:12:34;102201.56;;;6.06;100.00
23241;BME280;11789;53.482;9.862;2024-02-28T12:15:01;102205.03;;;6.08;100.00
23241;BME280;11789;53.482;9.862;2024-02-28T12:17:29;102198.28;;;6.10;100.00
23241;BME280;11789;53.482;9.862;2024-02-28T12:19:54;102199.28;;;6.14;100.00
23241;BME280;11789;53.482;9.862;2024-02-28T12:22:20;102208.75;;;6.15;100.00
23241;BME280;11789;53.482;9.862;2024-02-28T12:24:46;102200.16;;;6.14;100.00
23241;BME280;11789;53.482;9.862;2024-02-28T12:27:11;102194.22;;;6.15;100.00
23241;BME280;11789;53.482;9.862;2024-02-28T12:29:37;102198.75;;;6.22;100.00
23241;BME280;11789;53.482;9.862;2024-02-28T12:32:02;102188.19;;;6.15;100.00
23241;BME280;11789;53.482;9.862;2024-02-28T12:34:28;102183.72;;;6.09;100.00
23241;BME280;11789;53.482;9.862;2024-02-28T12:36:53;102179.44;;;6.10;100.00
23241;BME280;11789;53.482;9.862;2024-02-28T12:39:19;102185.44;;;6.10;100.00
23241;BME280;11789;53.482;9.862;2024-02-28T12:41:45;102181.88;;;6.07;100.00
23241;BME280;11789;53.482;9.862;2024-02-28T12:44:10;102177.69;;;6.09;100.00
23241;BME280;11789;53.482;9.862;2024-02-28T12:46:36;102173.31;;;6.06;100.00